createdAt,value
2017-06-22T00:00:26.894Z,18.73
2017-06-22T00:01:28.715Z,18.81
2017-06-22T00:02:30.537Z,18.65
2017-06-22T00:03:32.414Z,18.65
2017-06-22T00:04:34.262Z,18.54
2017-06-22T00:05:36.115Z,18.23
2017-06-22T00:06:50.295Z,17.95
2017-06-22T00:07:52.172Z,17.93
2017-06-22T00:08:54.056Z,17.92
2017-06-22T00:09:55.936Z,17.77
2017-06-22T00:10:57.756Z,17.97
2017-06-22T00:11:59.547Z,17.97
2017-06-22T00:13:01.410Z,18.17
2017-06-22T00:14:03.289Z,18.25
2017-06-22T00:15:05.144Z,18.30
2017-06-22T00:16:19.328Z,18.42
2017-06-22T00:17:21.209Z,18.45
2017-06-22T00:18:23.091Z,18.50
2017-06-22T00:19:24.971Z,18.41
2017-06-22T00:20:26.791Z,18.44
2017-06-22T00:21:28.585Z,18.47
2017-06-22T00:22:30.469Z,18.41
2017-06-22T00:23:32.350Z,18.45
2017-06-22T00:24:34.227Z,18.45
2017-06-22T00:25:48.432Z,18.42
2017-06-22T00:26:50.304Z,18.36
2017-06-22T00:27:52.166Z,18.30
2017-06-22T00:28:54.047Z,18.25
2017-06-22T00:29:55.866Z,18.23
2017-06-22T00:30:57.663Z,18.14
2017-06-22T00:31:59.543Z,18.17
2017-06-22T00:33:01.431Z,18.15
2017-06-22T00:34:03.307Z,18.10
2017-06-22T00:35:17.460Z,18.10
2017-06-22T00:36:19.340Z,18.02
2017-06-22T00:37:21.211Z,18.05
2017-06-22T00:38:23.076Z,18.17
2017-06-22T00:39:24.900Z,18.25
2017-06-22T00:40:26.719Z,18.21
2017-06-22T00:41:28.598Z,18.25
2017-06-22T00:42:30.479Z,18.18
2017-06-22T00:43:32.336Z,18.14
2017-06-22T00:44:46.470Z,18.12
2017-06-22T00:45:48.331Z,18.03
2017-06-22T00:46:50.210Z,18.03
2017-06-22T00:47:52.070Z,17.93
2017-06-22T00:48:53.894Z,17.96
2017-06-22T00:49:55.714Z,17.81
2017-06-22T00:50:57.589Z,17.77
2017-06-22T00:51:59.473Z,17.82
2017-06-22T00:53:01.350Z,17.70
2017-06-22T00:54:15.476Z,17.70
2017-06-22T00:55:17.334Z,17.66
2017-06-22T00:56:19.199Z,17.59
2017-06-22T00:57:21.072Z,17.64
2017-06-22T00:58:22.850Z,17.55
2017-06-22T00:59:24.640Z,17.58
2017-06-22T01:00:26.508Z,17.63
2017-06-22T01:01:28.380Z,17.52
2017-06-22T01:02:30.233Z,17.56
2017-06-22T01:03:44.353Z,17.49
2017-06-22T01:04:46.244Z,17.48
2017-06-22T01:05:48.126Z,17.52
2017-06-22T01:06:50.008Z,17.46
2017-06-22T01:07:51.822Z,17.38
2017-06-22T01:08:53.619Z,17.36
2017-06-22T01:09:55.476Z,17.37
2017-06-22T01:10:57.338Z,17.25
2017-06-22T01:11:59.210Z,17.25
2017-06-22T01:13:13.387Z,17.31
2017-06-22T01:14:15.266Z,17.18
2017-06-22T01:15:17.150Z,17.28
2017-06-22T01:16:19.029Z,17.28
2017-06-22T01:17:20.855Z,17.36
2017-06-22T01:18:22.675Z,17.31
2017-06-22T01:19:24.545Z,17.31
2017-06-22T01:20:26.407Z,17.36
2017-06-22T01:21:28.267Z,17.34
2017-06-22T01:22:42.397Z,17.34
2017-06-22T01:23:44.257Z,17.30
2017-06-22T01:24:46.138Z,17.33
2017-06-22T01:25:48.014Z,17.31
2017-06-22T01:26:49.816Z,17.22
2017-06-22T01:27:51.613Z,17.22
2017-06-22T01:28:53.470Z,17.21
2017-06-22T01:29:55.324Z,17.22
2017-06-22T01:30:57.183Z,17.23
2017-06-22T01:32:11.371Z,17.21
2017-06-22T01:33:13.243Z,17.12
2017-06-22T01:34:15.103Z,17.16
2017-06-22T01:35:16.978Z,17.16
2017-06-22T01:36:18.771Z,17.18
2017-06-22T01:37:20.571Z,17.11
2017-06-22T01:38:22.428Z,17.16
2017-06-22T01:39:24.285Z,17.12
2017-06-22T01:40:26.145Z,17.07
2017-06-22T01:41:40.274Z,17.14
2017-06-22T01:42:42.136Z,17.08
2017-06-22T01:43:44.014Z,17.16
2017-06-22T01:44:45.875Z,17.14
2017-06-22T01:45:47.693Z,17.03
2017-06-22T01:46:49.493Z,17.11
2017-06-22T01:47:51.351Z,17.11
2017-06-22T01:48:53.207Z,17.03
2017-06-22T01:49:55.085Z,16.97
2017-06-22T01:51:09.235Z,17.03
2017-06-22T01:52:11.095Z,17.03
2017-06-22T01:53:12.956Z,17.01
2017-06-22T01:54:14.815Z,17.07
2017-06-22T01:55:16.613Z,17.07
2017-06-22T01:56:18.411Z,17.08
2017-06-22T01:57:20.293Z,17.03
2017-06-22T01:58:22.149Z,17.06
2017-06-22T01:59:24.008Z,17.04
2017-06-22T02:00:38.141Z,17.04
2017-06-22T02:01:40.002Z,17.07
2017-06-22T02:02:41.879Z,17.14
2017-06-22T02:03:43.739Z,17.21
2017-06-22T02:04:45.556Z,17.31
2017-06-22T02:05:47.355Z,17.22
2017-06-22T02:06:49.214Z,17.22
2017-06-22T02:07:51.071Z,17.14
2017-06-22T02:08:52.950Z,17.06
2017-06-22T02:10:07.079Z,17.01
2017-06-22T02:11:08.938Z,17.00
2017-06-22T02:12:10.817Z,16.88
2017-06-22T02:13:12.674Z,16.89
2017-06-22T02:14:14.492Z,16.89
2017-06-22T02:15:16.291Z,16.94
2017-06-22T02:16:18.151Z,16.89
2017-06-22T02:17:20.034Z,16.91
2017-06-22T02:18:21.913Z,16.85
2017-06-22T02:19:36.096Z,16.98
2017-06-22T02:20:37.954Z,16.83
2017-06-22T02:21:39.836Z,16.79
2017-06-22T02:22:41.695Z,16.79
2017-06-22T02:23:43.510Z,16.73
2017-06-22T02:24:45.315Z,16.78
2017-06-22T02:25:47.194Z,16.60
2017-06-22T02:26:49.072Z,16.66
2017-06-22T02:27:50.928Z,16.75
2017-06-22T02:29:05.064Z,16.71
2017-06-22T02:30:06.940Z,16.73
2017-06-22T02:31:08.821Z,16.68
2017-06-22T02:32:10.679Z,16.63
2017-06-22T02:33:12.497Z,16.63
2017-06-22T02:34:14.313Z,16.61
2017-06-22T02:35:16.192Z,16.63
2017-06-22T02:36:18.069Z,16.63
2017-06-22T02:37:19.930Z,16.63
2017-06-22T02:38:34.065Z,16.61
2017-06-22T02:39:35.941Z,16.61
2017-06-22T02:40:37.803Z,16.67
2017-06-22T02:41:39.683Z,16.71
2017-06-22T02:42:41.571Z,16.70
2017-06-22T02:43:43.427Z,16.76
2017-06-22T02:44:45.284Z,16.73
2017-06-22T02:45:47.149Z,16.86
2017-06-22T02:46:49.028Z,16.89
2017-06-22T02:48:03.208Z,16.81
2017-06-22T02:49:05.067Z,16.82
2017-06-22T02:50:06.928Z,16.85
2017-06-22T02:51:08.809Z,16.85
2017-06-22T02:52:10.625Z,16.75
2017-06-22T02:53:12.434Z,16.88
2017-06-22T02:54:14.312Z,16.83
2017-06-22T02:55:16.167Z,16.94
2017-06-22T02:56:18.031Z,16.93
2017-06-22T02:57:32.189Z,16.97
2017-06-22T02:58:34.071Z,17.04
2017-06-22T02:59:35.959Z,17.08
2017-06-22T03:00:37.834Z,17.18
2017-06-22T03:01:39.637Z,17.26
2017-06-22T03:02:41.461Z,17.25
2017-06-22T03:03:43.344Z,17.34
2017-06-22T03:04:45.203Z,17.38
2017-06-22T03:05:47.064Z,17.54
2017-06-22T03:07:01.244Z,17.59
2017-06-22T03:08:03.103Z,17.62
2017-06-22T03:09:04.966Z,17.55
2017-06-22T03:10:06.829Z,17.43
2017-06-22T03:11:08.651Z,17.49
2017-06-22T03:12:10.451Z,17.51
2017-06-22T03:13:12.313Z,17.58
2017-06-22T03:14:14.170Z,17.59
2017-06-22T03:15:16.034Z,17.66
2017-06-22T03:16:30.165Z,17.68
2017-06-22T03:17:32.026Z,17.70
2017-06-22T03:18:33.896Z,17.77
2017-06-22T03:19:35.761Z,17.96
2017-06-22T03:20:37.561Z,18.08
2017-06-22T03:21:39.375Z,18.21
2017-06-22T03:22:41.231Z,18.33
2017-06-22T03:23:43.120Z,18.35
2017-06-22T03:24:44.999Z,18.41
2017-06-22T03:25:59.141Z,18.45
2017-06-22T03:27:01.021Z,18.52
2017-06-22T03:28:02.906Z,18.67
2017-06-22T03:29:04.769Z,18.72
2017-06-22T03:30:06.587Z,18.65
2017-06-22T03:31:08.393Z,18.81
2017-06-22T03:32:10.253Z,18.88
2017-06-22T03:33:12.116Z,18.98
2017-06-22T03:34:14.000Z,19.10
2017-06-22T03:35:28.158Z,19.10
2017-06-22T03:36:30.018Z,19.22
2017-06-22T03:37:31.905Z,19.43
2017-06-22T03:38:33.786Z,19.58
2017-06-22T03:39:35.601Z,19.77
2017-06-22T03:40:37.427Z,20.01
2017-06-22T03:41:39.313Z,20.01
2017-06-22T03:42:41.192Z,20.06
2017-06-22T03:43:43.059Z,20.21
2017-06-22T03:44:57.197Z,20.36
2017-06-22T03:45:59.059Z,20.57
2017-06-22T03:47:00.930Z,20.72
2017-06-22T03:48:02.819Z,20.98
2017-06-22T03:49:04.644Z,21.21
2017-06-22T03:50:06.470Z,21.46
2017-06-22T03:51:08.339Z,21.69
2017-06-22T03:52:10.223Z,21.90
2017-06-22T03:53:12.091Z,22.22
2017-06-22T03:54:26.253Z,22.45
2017-06-22T03:55:28.132Z,22.62
2017-06-22T03:56:30.010Z,22.72
2017-06-22T03:57:31.884Z,22.82
2017-06-22T03:58:33.694Z,23.02
2017-06-22T03:59:35.524Z,23.25
2017-06-22T04:00:37.352Z,23.50
2017-06-22T04:01:39.155Z,23.55
2017-06-22T04:02:40.983Z,23.60
2017-06-22T04:03:55.123Z,23.76
2017-06-22T04:04:57.003Z,23.94
2017-06-22T04:05:58.874Z,24.09
2017-06-22T04:07:00.765Z,24.16
2017-06-22T04:08:02.721Z,24.25
2017-06-22T04:09:04.578Z,24.40
2017-06-22T04:10:06.467Z,24.47
2017-06-22T04:11:08.354Z,24.69
2017-06-22T04:12:10.243Z,24.85
2017-06-22T04:13:24.418Z,24.84
2017-06-22T04:14:26.308Z,25.10
2017-06-22T04:15:28.202Z,25.27
2017-06-22T04:16:30.090Z,25.36
2017-06-22T04:17:31.922Z,25.42
2017-06-22T04:18:33.754Z,25.52
2017-06-22T04:19:35.643Z,25.67
2017-06-22T04:20:37.512Z,25.70
2017-06-22T04:21:39.405Z,25.62
2017-06-22T04:22:53.571Z,25.75
2017-06-22T04:23:55.453Z,25.82
2017-06-22T04:24:57.327Z,26.02
2017-06-22T04:25:59.193Z,26.06
2017-06-22T04:27:01.021Z,26.18
2017-06-22T04:28:02.834Z,26.30
2017-06-22T04:29:04.725Z,26.47
2017-06-22T04:30:06.596Z,26.55
2017-06-22T04:31:08.488Z,26.73
2017-06-22T04:32:22.647Z,26.84
2017-06-22T04:33:24.518Z,26.97
2017-06-22T04:34:26.393Z,27.07
2017-06-22T04:35:28.306Z,27.14
2017-06-22T04:36:30.105Z,27.28
2017-06-22T04:37:31.937Z,27.24
2017-06-22T04:38:33.807Z,27.41
2017-06-22T04:39:35.701Z,27.65
2017-06-22T04:40:37.568Z,27.75
2017-06-22T04:41:51.714Z,27.96
2017-06-22T04:42:53.602Z,28.02
2017-06-22T04:43:55.469Z,28.17
2017-06-22T04:44:57.341Z,28.21
2017-06-22T04:45:59.167Z,28.37
2017-06-22T04:47:00.983Z,28.29
2017-06-22T04:48:02.854Z,28.40
2017-06-22T04:49:04.723Z,28.54
2017-06-22T04:50:06.572Z,28.64
2017-06-22T04:51:20.717Z,28.71
2017-06-22T04:52:22.586Z,28.76
2017-06-22T04:53:24.461Z,28.76
2017-06-22T04:54:26.348Z,28.81
2017-06-22T04:55:28.162Z,28.81
2017-06-22T04:56:29.994Z,28.95
2017-06-22T04:57:31.865Z,29.00
2017-06-22T04:58:33.756Z,29.05
2017-06-22T04:59:35.623Z,29.11
2017-06-22T05:00:49.770Z,29.12
2017-06-22T05:01:51.660Z,29.00
2017-06-22T05:02:53.531Z,28.88
2017-06-22T05:03:55.423Z,28.93
2017-06-22T05:04:57.236Z,28.80
2017-06-22T05:05:59.061Z,28.89
2017-06-22T05:07:00.936Z,28.95
2017-06-22T05:08:02.824Z,29.19
2017-06-22T05:09:04.694Z,29.19
2017-06-22T05:10:18.842Z,29.31
2017-06-22T05:11:20.731Z,29.43
2017-06-22T05:12:22.601Z,29.57
2017-06-22T05:13:24.472Z,29.63
2017-06-22T05:14:26.301Z,29.61
2017-06-22T05:15:28.112Z,29.64
2017-06-22T05:16:29.986Z,29.55
2017-06-22T05:17:31.877Z,29.49
2017-06-22T05:18:33.769Z,29.51
2017-06-22T05:19:47.931Z,29.43
2017-06-22T05:20:49.815Z,29.45
2017-06-22T05:21:51.686Z,29.45
2017-06-22T05:22:53.553Z,29.60
2017-06-22T05:23:55.383Z,29.64
2017-06-22T05:24:57.206Z,29.60
2017-06-22T05:25:59.074Z,29.60
2017-06-22T05:27:00.943Z,29.67
2017-06-22T05:28:02.817Z,29.70
2017-06-22T05:29:16.976Z,29.68
2017-06-22T05:30:18.845Z,29.63
2017-06-22T05:31:20.738Z,29.60
2017-06-22T05:32:22.629Z,29.65
2017-06-22T05:33:24.433Z,29.57
2017-06-22T05:34:26.245Z,29.43
2017-06-22T05:35:28.112Z,29.31
2017-06-22T05:36:29.983Z,29.34
2017-06-22T05:37:31.855Z,29.39
2017-06-22T05:38:45.998Z,29.41
2017-06-22T05:39:47.883Z,29.45
2017-06-22T05:40:49.751Z,29.42
2017-06-22T05:41:51.623Z,29.19
2017-06-22T05:42:53.450Z,28.98
2017-06-22T05:43:55.262Z,28.71
2017-06-22T05:44:57.154Z,28.55
2017-06-22T05:45:59.043Z,28.44
2017-06-22T05:47:00.912Z,28.19
2017-06-22T05:48:15.057Z,28.02
2017-06-22T05:49:16.942Z,27.77
2017-06-22T05:50:18.834Z,27.57
2017-06-22T05:51:20.704Z,27.43
2017-06-22T05:52:22.534Z,27.37
2017-06-22T05:53:24.337Z,27.25
2017-06-22T05:54:26.206Z,27.09
2017-06-22T05:55:28.073Z,26.91
2017-06-22T05:56:29.940Z,26.85
2017-06-22T05:57:44.091Z,26.70
2017-06-22T05:58:45.979Z,26.67
2017-06-22T05:59:47.872Z,26.65
2017-06-22T06:00:49.760Z,26.47
2017-06-22T06:01:51.569Z,26.13
2017-06-22T06:02:53.381Z,25.92
2017-06-22T06:03:55.266Z,25.92
2017-06-22T06:04:57.153Z,25.76
2017-06-22T06:05:59.041Z,25.64
2017-06-22T06:07:13.187Z,25.28
2017-06-22T06:08:15.073Z,25.00
2017-06-22T06:09:16.961Z,24.80
2017-06-22T06:10:18.830Z,24.76
2017-06-22T06:11:20.660Z,24.77
2017-06-22T06:12:22.487Z,24.80
2017-06-22T06:13:24.353Z,24.80
2017-06-22T06:14:26.248Z,24.80
2017-06-22T06:15:28.134Z,24.61
2017-06-22T06:16:42.280Z,24.45
2017-06-22T06:17:44.166Z,24.50
2017-06-22T06:18:46.028Z,24.45
2017-06-22T06:19:47.900Z,24.55
2017-06-22T06:20:49.703Z,24.57
2017-06-22T06:21:51.531Z,24.71
2017-06-22T06:22:53.399Z,24.68
2017-06-22T06:23:55.261Z,24.60
2017-06-22T06:24:57.135Z,24.50
2017-06-22T06:26:11.275Z,24.60
2017-06-22T06:27:13.142Z,24.69
2017-06-22T06:28:15.030Z,24.78
2017-06-22T06:29:16.897Z,24.99
2017-06-22T06:30:18.728Z,24.91
2017-06-22T06:31:20.530Z,24.91
2017-06-22T06:32:22.401Z,24.96
2017-06-22T06:33:24.271Z,25.05
2017-06-22T06:34:26.158Z,25.13
2017-06-22T06:35:40.323Z,25.03
2017-06-22T06:36:42.203Z,25.05
2017-06-22T06:37:44.074Z,25.00
2017-06-22T06:38:45.937Z,25.00
2017-06-22T06:39:47.739Z,25.02
2017-06-22T06:40:49.551Z,25.06
2017-06-22T06:41:51.417Z,25.06
2017-06-22T06:42:53.307Z,25.13
2017-06-22T06:43:55.197Z,25.21
2017-06-22T06:45:09.358Z,25.23
2017-06-22T06:46:11.241Z,25.40
2017-06-22T06:47:13.110Z,25.45
2017-06-22T06:48:14.974Z,25.47
2017-06-22T06:49:16.799Z,25.47
2017-06-22T06:50:18.607Z,25.50
2017-06-22T06:51:20.477Z,25.54
2017-06-22T06:52:22.347Z,25.46
2017-06-22T06:53:24.217Z,25.47
2017-06-22T06:54:38.381Z,25.50
2017-06-22T06:55:40.268Z,25.64
2017-06-22T06:56:42.140Z,25.72
2017-06-22T06:57:44.004Z,25.76
2017-06-22T06:58:45.834Z,25.75
2017-06-22T06:59:47.639Z,25.80
2017-06-22T07:00:49.511Z,25.88
2017-06-22T07:01:51.378Z,25.91
2017-06-22T07:02:53.271Z,26.02
2017-06-22T07:04:07.484Z,26.09
2017-06-22T07:05:09.371Z,26.10
2017-06-22T07:06:11.261Z,26.25
2017-06-22T07:07:13.146Z,26.21
2017-06-22T07:08:14.979Z,26.06
2017-06-22T07:09:16.785Z,26.12
2017-06-22T07:10:18.669Z,26.01
2017-06-22T07:11:20.539Z,25.98
2017-06-22T07:12:22.403Z,25.90
2017-06-22T07:13:36.542Z,25.75
2017-06-22T07:14:38.410Z,25.65
2017-06-22T07:15:40.284Z,25.60
2017-06-22T07:16:42.167Z,25.72
2017-06-22T07:17:43.982Z,25.52
2017-06-22T07:18:45.788Z,25.58
2017-06-22T07:19:47.676Z,25.51
2017-06-22T07:20:49.546Z,25.52
2017-06-22T07:21:51.436Z,25.46
2017-06-22T07:23:05.598Z,25.45
2017-06-22T07:24:07.469Z,25.55
2017-06-22T07:25:09.365Z,25.60
2017-06-22T07:26:11.250Z,25.62
2017-06-22T07:27:13.055Z,25.58
2017-06-22T07:28:14.871Z,25.58
2017-06-22T07:29:16.752Z,25.52
2017-06-22T07:30:18.625Z,25.43
2017-06-22T07:31:20.511Z,25.35
2017-06-22T07:32:34.657Z,25.42
2017-06-22T07:33:36.542Z,25.50
2017-06-22T07:34:38.428Z,25.60
2017-06-22T07:35:40.299Z,25.47
2017-06-22T07:36:42.109Z,25.54
2017-06-22T07:37:43.922Z,25.46
2017-06-22T07:38:45.801Z,25.51
2017-06-22T07:39:47.667Z,25.45
2017-06-22T07:40:49.534Z,25.40
2017-06-22T07:42:03.675Z,25.60
2017-06-22T07:43:05.537Z,25.65
2017-06-22T07:44:07.420Z,25.82
2017-06-22T07:45:09.321Z,26.01
2017-06-22T07:46:11.173Z,26.21
2017-06-22T07:47:13.012Z,26.32
2017-06-22T07:48:14.884Z,26.39
2017-06-22T07:49:16.768Z,26.29
2017-06-22T07:50:18.631Z,26.21
2017-06-22T07:51:32.776Z,26.06
2017-06-22T07:52:34.661Z,26.07
2017-06-22T07:53:36.525Z,25.91
2017-06-22T07:54:38.400Z,25.98
2017-06-22T07:55:40.228Z,26.15
2017-06-22T07:56:42.031Z,26.36
2017-06-22T07:57:43.904Z,26.44
2017-06-22T07:58:45.795Z,26.45
2017-06-22T07:59:47.689Z,26.69
2017-06-22T08:01:01.828Z,26.70
2017-06-22T08:02:03.718Z,26.80
2017-06-22T08:03:05.603Z,26.92
2017-06-22T08:04:07.470Z,26.94
2017-06-22T08:05:09.281Z,26.95
2017-06-22T08:06:11.086Z,26.84
2017-06-22T08:07:12.953Z,26.75
2017-06-22T08:08:14.820Z,26.63
2017-06-22T08:09:16.691Z,26.60
2017-06-22T08:10:30.833Z,26.55
2017-06-22T08:11:32.700Z,26.51
2017-06-22T08:12:34.591Z,26.50
2017-06-22T08:13:36.481Z,26.54
2017-06-22T08:14:38.312Z,26.54
2017-06-22T08:15:40.142Z,26.51
2017-06-22T08:16:42.011Z,26.29
2017-06-22T08:17:43.894Z,26.39
2017-06-22T08:18:45.762Z,26.48
2017-06-22T08:19:59.904Z,26.60
2017-06-22T08:21:01.789Z,26.81
2017-06-22T08:22:03.664Z,26.84
2017-06-22T08:23:05.555Z,26.95
2017-06-22T08:24:07.381Z,27.02
2017-06-22T08:25:09.188Z,27.06
2017-06-22T08:26:11.059Z,27.25
2017-06-22T08:27:12.950Z,27.31
2017-06-22T08:28:14.836Z,27.27
2017-06-22T08:29:28.984Z,27.28
2017-06-22T08:30:30.872Z,27.44
2017-06-22T08:31:32.765Z,27.44
2017-06-22T08:32:34.654Z,27.40
2017-06-22T08:33:36.481Z,27.36
2017-06-22T08:34:38.291Z,27.12
2017-06-22T08:35:40.161Z,26.77
2017-06-22T08:36:42.029Z,26.73
2017-06-22T08:37:43.948Z,26.60
2017-06-22T08:38:58.089Z,26.76
2017-06-22T08:39:59.979Z,26.99
2017-06-22T08:41:01.868Z,27.03
2017-06-22T08:42:03.758Z,27.17
2017-06-22T08:43:05.586Z,27.32
2017-06-22T08:44:07.399Z,27.29
2017-06-22T08:45:09.265Z,27.49
2017-06-22T08:46:11.128Z,27.44
2017-06-22T08:47:13.002Z,27.37
2017-06-22T08:48:27.145Z,27.51
2017-06-22T08:49:29.033Z,27.51
2017-06-22T08:50:30.929Z,27.55
2017-06-22T08:51:32.815Z,27.66
2017-06-22T08:52:34.626Z,27.67
2017-06-22T08:53:36.435Z,27.78
2017-06-22T08:54:38.325Z,27.69
2017-06-22T08:55:40.189Z,27.75
2017-06-22T08:56:42.076Z,27.75
2017-06-22T08:57:56.222Z,27.70
2017-06-22T08:58:58.086Z,27.69
2017-06-22T08:59:59.959Z,27.70
2017-06-22T09:01:01.851Z,27.69
2017-06-22T09:02:03.675Z,27.67
2017-06-22T09:03:05.483Z,27.72
2017-06-22T09:04:07.356Z,27.60
2017-06-22T09:05:09.224Z,27.50
2017-06-22T09:06:11.112Z,27.40
2017-06-22T09:07:25.277Z,27.34
2017-06-22T09:08:27.148Z,27.39
2017-06-22T09:09:29.034Z,27.36
2017-06-22T09:10:30.901Z,27.41
2017-06-22T09:11:32.730Z,27.41
2017-06-22T09:12:34.543Z,27.55
2017-06-22T09:13:36.410Z,27.59
2017-06-22T09:14:38.282Z,27.67
2017-06-22T09:15:40.166Z,27.78
2017-06-22T09:16:54.313Z,27.93
2017-06-22T09:17:56.201Z,28.00
2017-06-22T09:18:58.093Z,28.07
2017-06-22T09:19:59.981Z,28.15
2017-06-22T09:21:01.814Z,28.27
2017-06-22T09:22:03.623Z,28.31
2017-06-22T09:23:05.510Z,28.31
2017-06-22T09:24:07.382Z,28.37
2017-06-22T09:25:09.273Z,28.40
2017-06-22T09:26:23.441Z,28.46
2017-06-22T09:27:25.326Z,28.58
2017-06-22T09:28:27.196Z,28.43
2017-06-22T09:29:29.059Z,28.33
2017-06-22T09:30:30.863Z,28.43
2017-06-22T09:31:32.671Z,28.58
2017-06-22T09:32:34.540Z,28.52
2017-06-22T09:33:36.410Z,28.68
2017-06-22T09:34:38.300Z,28.62
2017-06-22T09:35:52.464Z,28.70
2017-06-22T09:36:54.352Z,28.56
2017-06-22T09:37:56.247Z,28.43
2017-06-22T09:38:58.118Z,28.37
2017-06-22T09:39:59.946Z,28.37
2017-06-22T09:41:01.753Z,28.41
2017-06-22T09:42:03.625Z,28.48
2017-06-22T09:43:05.518Z,28.56
2017-06-22T09:44:07.408Z,28.41
2017-06-22T09:45:21.575Z,28.51
2017-06-22T09:46:23.440Z,28.43
2017-06-22T09:47:25.317Z,28.40
2017-06-22T09:48:27.206Z,28.39
2017-06-22T09:49:29.034Z,28.51
2017-06-22T09:50:30.867Z,28.61
2017-06-22T09:51:32.761Z,28.62
2017-06-22T09:52:34.645Z,28.78
2017-06-22T09:53:36.521Z,28.76
2017-06-22T09:54:50.688Z,28.90
2017-06-22T09:55:52.575Z,28.95
2017-06-22T09:56:54.462Z,29.00
2017-06-22T09:57:56.333Z,29.00
2017-06-22T09:58:58.144Z,29.11
2017-06-22T09:59:59.974Z,29.14
2017-06-22T10:01:01.845Z,29.06
2017-06-22T10:02:03.737Z,29.05
2017-06-22T10:03:05.629Z,28.92
2017-06-22T10:04:19.794Z,29.00
2017-06-22T10:05:21.665Z,28.96
2017-06-22T10:06:23.549Z,28.83
2017-06-22T10:07:25.420Z,28.73
2017-06-22T10:08:27.252Z,28.74
2017-06-22T10:09:29.063Z,28.70
2017-06-22T10:10:30.956Z,28.67
2017-06-22T10:11:32.848Z,28.71
2017-06-22T10:12:34.738Z,28.93
2017-06-22T10:13:48.907Z,28.90
2017-06-22T10:14:50.772Z,29.09
2017-06-22T10:15:52.642Z,29.21
2017-06-22T10:16:54.520Z,29.30
2017-06-22T10:17:56.343Z,29.36
2017-06-22T10:18:58.158Z,29.24
2017-06-22T10:20:00.026Z,29.36
2017-06-22T10:21:01.890Z,29.36
2017-06-22T10:22:03.761Z,29.36
2017-06-22T10:23:17.902Z,29.39
2017-06-22T10:24:19.772Z,29.30
2017-06-22T10:25:21.640Z,29.15
2017-06-22T10:26:23.514Z,29.18
2017-06-22T10:27:25.341Z,29.12
2017-06-22T10:28:27.156Z,29.16
2017-06-22T10:29:29.047Z,29.24
2017-06-22T10:30:30.920Z,29.26
2017-06-22T10:31:32.807Z,29.41
2017-06-22T10:32:47.106Z,29.49
2017-06-22T10:33:48.991Z,29.63
2017-06-22T10:34:50.860Z,29.61
2017-06-22T10:35:52.754Z,29.63
2017-06-22T10:36:54.586Z,29.55
2017-06-22T10:37:56.411Z,29.58
2017-06-22T10:38:58.289Z,29.58
2017-06-22T10:40:00.183Z,29.58
2017-06-22T10:41:02.075Z,29.55
2017-06-22T10:42:16.216Z,29.61
2017-06-22T10:43:18.087Z,29.60
2017-06-22T10:44:19.977Z,29.57
2017-06-22T10:45:21.842Z,29.55
2017-06-22T10:46:23.658Z,29.46
2017-06-22T10:47:25.492Z,29.55
2017-06-22T10:48:27.385Z,29.71
2017-06-22T10:49:29.279Z,29.60
2017-06-22T10:50:31.146Z,29.68
2017-06-22T10:51:45.294Z,29.71
2017-06-22T10:52:47.182Z,29.67
2017-06-22T10:53:49.074Z,29.65
2017-06-22T10:54:50.948Z,29.82
2017-06-22T10:55:52.779Z,29.83
2017-06-22T10:56:54.586Z,29.83
2017-06-22T10:57:56.456Z,29.82
2017-06-22T10:58:58.317Z,29.87
2017-06-22T11:00:00.187Z,29.89
2017-06-22T11:01:14.327Z,29.90
2017-06-22T11:02:16.216Z,29.95
2017-06-22T11:03:18.109Z,29.90
2017-06-22T11:04:19.978Z,30.00
2017-06-22T11:05:21.788Z,30.05
2017-06-22T11:06:23.616Z,29.97
2017-06-22T11:07:25.489Z,30.10
2017-06-22T11:08:27.379Z,30.10
2017-06-22T11:09:29.253Z,30.02
2017-06-22T11:10:43.469Z,30.02
2017-06-22T11:11:45.359Z,29.95
2017-06-22T11:12:47.232Z,30.10
2017-06-22T11:13:49.128Z,30.17
2017-06-22T11:14:50.959Z,30.05
2017-06-22T11:15:52.784Z,30.15
2017-06-22T11:16:54.663Z,30.16
2017-06-22T11:17:56.551Z,30.04
2017-06-22T11:18:58.422Z,30.05
2017-06-22T11:20:12.586Z,30.24
2017-06-22T11:21:14.463Z,30.20
2017-06-22T11:22:16.357Z,30.17
2017-06-22T11:23:18.248Z,30.17
2017-06-22T11:24:20.057Z,30.10
2017-06-22T11:25:21.866Z,30.07
2017-06-22T11:26:23.737Z,30.00
2017-06-22T11:27:25.631Z,30.15
2017-06-22T11:28:27.521Z,30.11
2017-06-22T11:29:41.666Z,30.17
2017-06-22T11:30:43.556Z,30.22
2017-06-22T11:31:45.425Z,30.35
2017-06-22T11:32:47.315Z,30.49
2017-06-22T11:33:49.130Z,30.57
2017-06-22T11:34:50.956Z,30.55
2017-06-22T11:35:52.833Z,30.61
2017-06-22T11:36:54.721Z,30.49
2017-06-22T11:37:56.597Z,30.47
2017-06-22T11:39:10.759Z,30.46
2017-06-22T11:40:12.627Z,30.31
2017-06-22T11:41:14.495Z,30.49
2017-06-22T11:42:16.367Z,30.57
2017-06-22T11:43:18.201Z,30.57
2017-06-22T11:44:20.012Z,30.62
2017-06-22T11:45:21.881Z,30.73
2017-06-22T11:46:23.768Z,30.77
2017-06-22T11:47:25.639Z,30.73
2017-06-22T11:48:39.786Z,30.75
2017-06-22T11:49:41.677Z,30.53
2017-06-22T11:50:43.573Z,30.57
2017-06-22T11:51:45.462Z,30.70
2017-06-22T11:52:47.268Z,30.84
2017-06-22T11:53:49.083Z,31.09
2017-06-22T11:54:50.980Z,31.26
2017-06-22T11:55:52.855Z,31.56
2017-06-22T11:56:54.743Z,31.76
2017-06-22T11:58:08.918Z,31.88
2017-06-22T11:59:10.810Z,31.96
2017-06-22T12:00:12.703Z,32.21
2017-06-22T12:01:14.579Z,32.29
2017-06-22T12:02:16.414Z,32.52
2017-06-22T12:03:18.221Z,32.65
2017-06-22T12:04:20.094Z,32.66
2017-06-22T12:05:21.968Z,32.55
2017-06-22T12:06:23.860Z,32.38
2017-06-22T12:07:38.001Z,32.04
2017-06-22T12:08:39.878Z,31.78
2017-06-22T12:09:41.776Z,31.47
2017-06-22T12:10:43.647Z,31.32
2017-06-22T12:11:45.481Z,31.48
2017-06-22T12:12:47.315Z,31.58
2017-06-22T12:13:49.210Z,31.72
2017-06-22T12:14:51.104Z,31.85
2017-06-22T12:15:52.995Z,31.92
2017-06-22T12:17:07.144Z,32.00
2017-06-22T12:18:09.041Z,32.08
2017-06-22T12:19:10.934Z,32.15
2017-06-22T12:20:12.828Z,32.19
2017-06-22T12:21:14.636Z,32.23
2017-06-22T12:22:16.448Z,32.25
2017-06-22T12:23:18.319Z,32.19
2017-06-22T12:24:20.193Z,32.19
2017-06-22T12:25:22.087Z,32.14
2017-06-22T12:26:36.234Z,32.23
2017-06-22T12:27:38.202Z,32.26
2017-06-22T12:28:40.093Z,32.11
2017-06-22T12:29:41.966Z,31.99
2017-06-22T12:30:43.778Z,31.99
2017-06-22T12:31:45.611Z,32.04
2017-06-22T12:32:47.498Z,31.95
2017-06-22T12:33:49.386Z,31.96
2017-06-22T12:34:51.282Z,31.91
2017-06-22T12:36:05.453Z,32.08
2017-06-22T12:37:07.343Z,32.21
2017-06-22T12:38:09.215Z,32.45
2017-06-22T12:39:11.082Z,32.43
2017-06-22T12:40:12.893Z,32.55
2017-06-22T12:41:14.710Z,32.65
2017-06-22T12:42:16.606Z,32.69
2017-06-22T12:43:18.501Z,32.67
2017-06-22T12:44:20.403Z,32.72
2017-06-22T12:45:34.575Z,32.70
2017-06-22T12:46:36.463Z,32.81
2017-06-22T12:47:38.343Z,32.88
2017-06-22T12:48:40.231Z,33.01
2017-06-22T12:49:42.046Z,33.18
2017-06-22T12:50:43.860Z,33.23
2017-06-22T12:51:45.738Z,33.18
2017-06-22T12:52:47.631Z,33.11
2017-06-22T12:53:49.506Z,33.11
2017-06-22T12:55:03.674Z,33.22
2017-06-22T12:56:05.570Z,33.38
2017-06-22T12:57:07.468Z,33.51
2017-06-22T12:58:09.360Z,33.47
2017-06-22T12:59:11.179Z,33.53
2017-06-22T13:00:13.015Z,33.66
2017-06-22T13:01:14.888Z,33.66
2017-06-22T13:02:16.781Z,33.66
2017-06-22T13:03:18.654Z,33.68
2017-06-22T13:04:32.807Z,33.60
2017-06-22T13:05:34.701Z,33.59
2017-06-22T13:06:36.598Z,33.76
2017-06-22T13:07:38.473Z,33.82
2017-06-22T13:08:40.307Z,33.91
2017-06-22T13:09:42.123Z,34.05
2017-06-22T13:10:43.996Z,34.06
2017-06-22T13:11:45.872Z,34.27
2017-06-22T13:12:47.769Z,34.42
2017-06-22T13:14:01.943Z,34.58
2017-06-22T13:15:03.833Z,34.73
2017-06-22T13:16:05.779Z,34.94
2017-06-22T13:17:07.658Z,34.92
2017-06-22T13:18:09.475Z,35.02
2017-06-22T13:19:11.314Z,35.21
2017-06-22T13:20:13.309Z,35.15
2017-06-22T13:21:15.187Z,35.15
2017-06-22T13:22:17.153Z,35.10
2017-06-22T13:23:31.307Z,34.85
2017-06-22T13:24:33.206Z,34.77
2017-06-22T13:25:35.085Z,34.91
2017-06-22T13:26:36.987Z,34.96
2017-06-22T13:27:38.822Z,35.06
2017-06-22T13:28:40.635Z,35.02
2017-06-22T13:29:42.515Z,34.78
2017-06-22T13:30:44.559Z,34.64
2017-06-22T13:31:46.587Z,34.56
2017-06-22T13:33:00.895Z,34.56
2017-06-22T13:34:02.877Z,34.72